Time;durP1;ratioP1;P1;durP2;ratioP2;P2;SDS_P1;SDS_P2;PMS_P1;PMS_P2;Temp;Humidity;BMP_temperature;BMP_pressure;BME280_temperature;BME280_humidity;BME280_pressure;Samples;Min_cycle;Max_cycle;Signal;HPM_P1;HPM_P2
2021/12/13 00:01:00;;;;;;;;;;;;;;;;;;5092870;28;20049;-77
2021/12/13 00:03:31;;;;;;;;;;;;;;;;;;5094098;28;19916;-77
2021/12/13 00:06:00;;;;;;;;;;;;;;;;;;5093652;28;20015;-77
2021/12/13 00:08:33;;;;;;;;;;;;;;;;;;5077454;28;19924;-77
2021/12/13 00:11:11;;;;;;;;;;;;;;;;;;5073281;28;20011;-77
2021/12/13 00:13:41;;;;;;;;;;;;;;;;;;5074296;28;20262;-77
2021/12/13 00:16:07;;;;;;;;;;;;;;;;;;5073236;28;19935;-76
2021/12/13 00:18:35;;;;;;;;;;;;;;;;;;5073758;28;19920;-77
2021/12/13 00:21:07;;;;;;;;;;;;;;;;;;5073670;28;20046;-77
2021/12/13 00:23:35;;;;;;;;;;;;;;;;;;5073474;28;19916;-77
2021/12/13 00:26:03;;;;;;;;;;;;;;;;;;5073511;28;20235;-77
2021/12/13 00:28:32;;;;;;;;;;;;;;;;;;5073478;28;19917;-77
2021/12/13 00:31:00;;;;;;;;;;;;;;;;;;5076328;28;19920;-77
2021/12/13 00:33:44;;;;;;;;;;;;;;;;;;5077474;28;19919;-77
2021/12/13 00:36:30;;;;;;;;;;;;;;;;;;5077593;28;19928;-77
2021/12/13 00:38:58;;;;;;;;;;;;;;;;;;5105095;28;19916;-77
2021/12/13 00:41:26;;;;;;;;;;;;;;;;;;5097876;28;20293;-77
2021/12/13 00:43:54;;;;;;;;;;;;;;;;;;5097520;28;19923;-78
2021/12/13 00:46:21;;;;;;;;;;;;;;;;;;5097558;28;19920;-77
2021/12/13 00:48:49;;;;;;;;;;;;;;;;;;5097584;28;20381;-77
2021/12/13 00:51:16;;;;;;;;;;;;;;;;;;5097664;28;19920;-77
2021/12/13 00:53:44;;;;;;;;;;;;;;;;;;5097608;28;20266;-77
2021/12/13 00:56:28;;;;;;;;;;;;;;;;;;5097135;28;19920;-77
2021/12/13 00:58:53;;;;;;;;;;;;;;;;;;5097234;28;19921;-77
2021/12/13 01:01:22;;;;;;;;;;;;;;;;;;5097041;28;20325;-77
2021/12/13 01:03:48;;;;;;;;;;;;;;;;;;5097248;28;20022;-76
2021/12/13 01:06:39;;;;;;;;;;;;;;;;;;5096749;28;19969;-76
2021/12/13 01:09:23;;;;;;;;;;;;;;;;;;5097027;28;19920;-77
2021/12/13 01:11:54;;;;;;;;;;;;;;;;;;5096883;28;19916;-76
2021/12/13 01:14:38;;;;;;;;;;;;;;;;;;5097358;28;19969;-77
2021/12/13 01:17:18;;;;;;;;;;;;;;;;;;5096978;28;19932;-77
2021/12/13 01:19:52;;;;;;;;;;;;;;;;;;5096019;28;20373;-77
2021/12/13 01:27:32;;;;;;;;;;;;;;;;;;5096498;28;20400;-77
2021/12/13 01:29:58;;;;;;;;;;;;;;;;;;5097076;28;20257;-77
2021/12/13 01:32:25;;;;;;;;;;;;;;;;;;5097082;28;20474;-76
2021/12/13 01:34:50;;;;;;;;;;;;;;;;;;5095951;28;19916;-77
2021/12/13 01:37:17;;;;;;;;;;;;;;;;;;5096419;28;19989;-77
2021/12/13 01:39:50;;;;;;;;;;;;;;;;;;5096632;28;19923;-77
2021/12/13 01:42:18;;;;;;;;;;;;;;;;;;5096581;28;19916;-77
2021/12/13 01:44:45;;;;;;;;;;;;;;;;;;5095359;28;19920;-77
2021/12/13 01:47:16;;;;;;;;;;;;;;;;;;5096445;28;20350;-77
2021/12/13 01:49:43;;;;;;;;;;;;;;;;;;5096682;28;19916;-77
2021/12/13 01:52:19;;;;;;;;;;;;;;;;;;5095934;28;21258;-78
2021/12/13 01:54:44;;;;;;;;;;;;;;;;;;5096471;28;19920;-76
2021/12/13 01:57:23;;;;;;;;;;;;;;;;;;5096101;28;20016;-77
2021/12/13 02:00:08;;;;;;;;;;;;;;;;;;5096465;28;19916;-77
2021/12/13 02:02:43;;;;;;;;;;;;;;;;;;5095148;28;19923;-76
2021/12/13 02:05:14;;;;;;;;;;;;;;;;;;5112894;28;19916;-77
2021/12/13 02:07:45;;;;;;;;;;;;;;;;;;5116387;28;19915;-76
2021/12/13 02:10:13;;;;;;;;;;;;;;;;;;5116693;28;19916;-76
2021/12/13 02:12:42;;;;;;;;;;;;;;;;;;5116545;28;19955;-77
2021/12/13 02:17:53;;;;;;;;;;;;;;;;;;5116310;28;19923;-76
2021/12/13 02:20:23;;;;;;;;;;;;;;;;;;5116467;28;19923;-76
2021/12/13 02:22:49;;;;;;;;;;;;;;;;;;5116234;28;20002;-77
2021/12/13 02:25:17;;;;;;;;;;;;;;;;;;5115246;28;20445;-76
2021/12/13 02:27:47;;;;;;;;;;;;;;;;;;5116179;28;19918;-76
2021/12/13 02:30:21;;;;;;;;;;;;;;;;;;5115961;28;19916;-76
2021/12/13 02:32:47;;;;;;;;;;;;;;;;;;5116177;28;19915;-76
2021/12/13 02:35:13;;;;;;;;;;;;;;;;;;5115111;28;19915;-76
2021/12/13 02:37:39;;;;;;;;;;;;;;;;;;5095601;28;20350;-77
2021/12/13 02:40:05;;;;;;;;;;;;;;;;;;5095563;28;19927;-77
2021/12/13 02:42:31;;;;;;;;;;;;;;;;;;5095192;28;19993;-77
2021/12/13 02:45:12;;;;;;;;;;;;;;;;;;5095420;28;19912;-76
2021/12/13 02:47:40;;;;;;;;;;;;;;;;;;5095256;28;19920;-76
2021/12/13 02:50:09;;;;;;;;;;;;;;;;;;5094985;28;19916;-77
2021/12/13 02:52:35;;;;;;;;;;;;;;;;;;5094958;28;19920;-77
2021/12/13 02:55:04;;;;;;;;;;;;;;;;;;5094998;28;19916;-77
2021/12/13 02:57:38;;;;;;;;;;;;;;;;;;5095053;28;19967;-76
2021/12/13 03:00:11;;;;;;;;;;;;;;;;;;5095152;28;19967;-76
2021/12/13 03:02:38;;;;;;;;;;;;;;;;;;5095184;28;19966;-76
2021/12/13 03:05:06;;;;;;;;;;;;;;;;;;5093810;28;20390;-77
2021/12/13 03:07:37;;;;;;;;;;;;;;;;;;5074457;28;19920;-76
2021/12/13 03:10:13;;;;;;;;;;;;;;;;;;5074541;28;19943;-76
2021/12/13 03:12:39;;;;;;;;;;;;;;;;;;5074686;28;20363;-76
2021/12/13 03:15:07;;;;;;;;;;;;;;;;;;5074649;28;19927;-76
2021/12/13 03:17:35;;;;;;;;;;;;;;;;;;5074313;28;19920;-76
2021/12/13 03:20:18;;;;;;;;;;;;;;;;;;5090062;28;19969;-76
2021/12/13 03:23:02;;;;;;;;;;;;;;;;;;5074645;28;19920;-77
2021/12/13 03:25:48;;;;;;;;;;;;;;;;;;5074365;28;19962;-77
2021/12/13 03:28:22;;;;;;;;;;;;;;;;;;5052934;28;19920;-77
2021/12/13 03:30:56;;;;;;;;;;;;;;;;;;5074193;28;19971;-76
2021/12/13 03:33:29;;;;;;;;;;;;;;;;;;5074342;28;20281;-77
2021/12/13 03:35:56;;;;;;;;;;;;;;;;;;5080865;28;20400;-76
2021/12/13 03:38:25;;;;;;;;;;;;;;;;;;5094317;28;19916;-76
2021/12/13 03:40:50;;;;;;;;;;;;;;;;;;5093770;28;20445;-76
2021/12/13 03:43:18;;;;;;;;;;;;;;;;;;5094555;28;19972;-76
2021/12/13 03:45:48;;;;;;;;;;;;;;;;;;5093271;28;19920;-76
2021/12/13 03:48:14;;;;;;;;;;;;;;;;;;5094359;28;19916;-76
2021/12/13 03:50:42;;;;;;;;;;;;;;;;;;5094339;28;19919;-76
2021/12/13 03:53:09;;;;;;;;;;;;;;;;;;5094127;28;19916;-77
2021/12/13 03:55:36;;;;;;;;;;;;;;;;;;5094024;28;20258;-77
2021/12/13 03:58:05;;;;;;;;;;;;;;;;;;5094249;28;19920;-76
2021/12/13 04:00:33;;;;;;;;;;;;;;;;;;5094203;28;20460;-76
2021/12/13 04:03:00;;;;;;;;;;;;;;;;;;5093833;28;19966;-76
2021/12/13 04:05:27;;;;;;;;;;;;;;;;;;5093424;28;19916;-76
2021/12/13 04:07:54;;;;;;;;;;;;;;;;;;5093836;28;20011;-76
2021/12/13 04:10:22;;;;;;;;;;;;;;;;;;5093763;28;19959;-76
2021/12/13 04:12:50;;;;;;;;;;;;;;;;;;5092776;28;20333;-76
2021/12/13 04:15:16;;;;;;;;;;;;;;;;;;5093874;28;19916;-76
2021/12/13 04:17:55;;;;;;;;;;;;;;;;;;5093526;28;19920;-77
2021/12/13 04:20:23;;;;;;;;;;;;;;;;;;5092595;28;19916;-77
2021/12/13 04:22:50;;;;;;;;;;;;;;;;;;5093029;28;19974;-77
2021/12/13 04:25:17;;;;;;;;;;;;;;;;;;5093660;28;19961;-76
2021/12/13 04:27:43;;;;;;;;;;;;;;;;;;5093760;28;19916;-77
2021/12/13 04:30:23;;;;;;;;;;;;;;;;;;5093941;28;20278;-76
2021/12/13 04:32:52;;;;;;;;;;;;;;;;;;5093576;28;19916;-77
2021/12/13 04:35:17;;;;;;;;;;;;;;;;;;5093497;28;19927;-77
2021/12/13 04:37:45;;;;;;;;;;;;;;;;;;5093735;28;19924;-76
2021/12/13 04:40:14;;;;;;;;;;;;;;;;;;5092598;28;19916;-76
2021/12/13 04:42:40;;;;;;;;;;;;;;;;;;5093880;28;19923;-77
2021/12/13 04:45:12;;;;;;;;;;;;;;;;;;5093685;28;19922;-77
2021/12/13 04:47:42;;;;;;;;;;;;;;;;;;5091879;28;19920;-77
2021/12/13 04:50:10;;;;;;;;;;;;;;;;;;5092705;28;19916;-76
2021/12/13 04:52:36;;;;;;;;;;;;;;;;;;5075620;28;19951;-77
2021/12/13 04:55:05;;;;;;;;;;;;;;;;;;5093602;28;20431;-77
2021/12/13 04:57:31;;;;;;;;;;;;;;;;;;5093402;28;19920;-77
2021/12/13 04:59:59;;;;;;;;;;;;;;;;;;5093527;28;19916;-77
2021/12/13 05:02:25;;;;;;;;;;;;;;;;;;5093878;28;20258;-77
2021/12/13 05:05:03;;;;;;;;;;;;;;;;;;5093627;28;19938;-76
2021/12/13 05:07:29;;;;;;;;;;;;;;;;;;5093626;28;20343;-76
2021/12/13 05:09:55;;;;;;;;;;;;;;;;;;5093299;28;19973;-77
2021/12/13 05:12:25;;;;;;;;;;;;;;;;;;5093334;28;19916;-77
2021/12/13 05:14:55;;;;;;;;;;;;;;;;;;5094119;28;19920;-77
2021/12/13 05:17:31;;;;;;;;;;;;;;;;;;5097112;28;19927;-77
2021/12/13 05:20:11;;;;;;;;;;;;;;;;;;5097110;28;20014;-77
2021/12/13 05:22:54;;;;;;;;;;;;;;;;;;5088873;28;19923;-77
2021/12/13 05:25:22;;;;;;;;;;;;;;;;;;5076567;28;19916;-77
2021/12/13 05:27:56;;;;;;;;;;;;;;;;;;5076429;28;19927;-77
2021/12/13 05:30:23;;;;;;;;;;;;;;;;;;5076424;28;19938;-77
2021/12/13 05:32:51;;;;;;;;;;;;;;;;;;5075946;28;19916;-77
2021/12/13 05:35:21;;;;;;;;;;;;;;;;;;5076388;28;20030;-77
2021/12/13 05:37:51;;;;;;;;;;;;;;;;;;5076363;28;19970;-77
2021/12/13 05:40:19;;;;;;;;;;;;;;;;;;5080353;28;19916;-77
2021/12/13 05:42:46;;;;;;;;;;;;;;;;;;5096617;28;19920;-77
2021/12/13 05:45:14;;;;;;;;;;;;;;;;;;5096623;28;19916;-77
2021/12/13 05:47:52;;;;;;;;;;;;;;;;;;5096306;28;20309;-77
2021/12/13 05:50:24;;;;;;;;;;;;;;;;;;5094715;28;20376;-77
2021/12/13 05:52:59;;;;;;;;;;;;;;;;;;5096291;28;19916;-77
2021/12/13 05:55:24;;;;;;;;;;;;;;;;;;5096059;28;19920;-77
2021/12/13 05:57:50;;;;;;;;;;;;;;;;;;5095103;28;19920;-77
2021/12/13 06:00:19;;;;;;;;;;;;;;;;;;5096360;28;19923;-77
2021/12/13 06:03:07;;;;;;;;;;;;;;;;;;5096171;28;20005;-76
2021/12/13 06:05:35;;;;;;;;;;;;;;;;;;5094858;28;19916;-76
2021/12/13 06:08:03;;;;;;;;;;;;;;;;;;5095315;28;20361;-77
2021/12/13 06:10:36;;;;;;;;;;;;;;;;;;5077965;28;20341;-77
2021/12/13 06:13:03;;;;;;;;;;;;;;;;;;5094618;28;19977;-77
2021/12/13 06:15:29;;;;;;;;;;;;;;;;;;5095947;28;19916;-76
2021/12/13 06:18:18;;;;;;;;;;;;;;;;;;5094667;28;19973;-76
2021/12/13 06:20:43;;;;;;;;;;;;;;;;;;5087538;28;19973;-76
2021/12/13 06:23:23;;;;;;;;;;;;;;;;;;5095825;28;20315;-77
2021/12/13 06:25:53;;;;;;;;;;;;;;;;;;5095525;28;19916;-77
2021/12/13 06:28:21;;;;;;;;;;;;;;;;;;5093788;28;19916;-76
2021/12/13 06:30:51;;;;;;;;;;;;;;;;;;5095685;28;20293;-76
2021/12/13 06:33:16;;;;;;;;;;;;;;;;;;5095699;28;20289;-75
2021/12/13 06:35:56;;;;;;;;;;;;;;;;;;5095514;28;19923;-75
2021/12/13 06:38:26;;;;;;;;;;;;;;;;;;5095582;28;19927;-77
2021/12/13 06:41:07;;;;;;;;;;;;;;;;;;5095589;28;19922;-76
2021/12/13 06:43:41;;;;;;;;;;;;;;;;;;5095466;28;19915;-76
2021/12/13 06:46:11;;;;;;;;;;;;;;;;;;5095234;28;19927;-76
2021/12/13 06:48:40;;;;;;;;;;;;;;;;;;5092687;28;19920;-76
2021/12/13 06:51:06;;;;;;;;;;;;;;;;;;5095278;28;19916;-76
2021/12/13 06:53:32;;;;;;;;;;;;;;;;;;5095419;28;19916;-77
2021/12/13 06:55:57;;;;;;;;;;;;;;;;;;5095332;28;19923;-76
2021/12/13 06:58:24;;;;;;;;;;;;;;;;;;5095526;28;19916;-76
2021/12/13 07:00:52;;;;;;;;;;;;;;;;;;5095497;28;19931;-77
2021/12/13 07:03:26;;;;;;;;;;;;;;;;;;5095366;28;19924;-77
2021/12/13 07:05:56;;;;;;;;;;;;;;;;;;5094912;28;19916;-77
2021/12/13 07:08:26;;;;;;;;;;;;;;;;;;5093986;28;20346;-77
2021/12/13 07:10:51;;;;;;;;;;;;;;;;;;5094973;28;19923;-77
2021/12/13 07:13:22;;;;;;;;;;;;;;;;;;5094878;28;20007;-77
2021/12/13 07:15:50;;;;;;;;;;;;;;;;;;5095031;28;20015;-75
2021/12/13 07:18:22;;;;;;;;;;;;;;;;;;5094853;28;19924;-76
2021/12/13 07:20:54;;;;;;;;;;;;;;;;;;5095044;28;19917;-77
2021/12/13 07:23:20;;;;;;;;;;;;;;;;;;5094850;28;20246;-77
2021/12/13 07:25:46;;;;;;;;;;;;;;;;;;5094221;28;19941;-77
2021/12/13 07:28:25;;;;;;;;;;;;;;;;;;5094552;28;20011;-77
2021/12/13 07:30:51;;;;;;;;;;;;;;;;;;5094735;28;19916;-76
2021/12/13 07:33:17;;;;;;;;;;;;;;;;;;5092031;28;19916;-77
2021/12/13 07:35:44;;;;;;;;;;;;;;;;;;5083782;28;20303;-77
2021/12/13 07:38:20;;;;;;;;;;;;;;;;;;5094110;28;19920;-77
2021/12/13 07:40:48;;;;;;;;;;;;;;;;;;5085718;28;19920;-76
2021/12/13 07:43:21;;;;;;;;;;;;;;;;;;5074129;28;20381;-77
2021/12/13 07:45:58;;;;;;;;;;;;;;;;;;5074065;28;19922;-77
2021/12/13 07:48:26;;;;;;;;;;;;;;;;;;5073623;28;19970;-78
2021/12/13 07:51:14;;;;;;;;;;;;;;;;;;5073613;28;20386;-76
2021/12/13 07:54:01;;;;;;;;;;;;;;;;;;5070415;28;19916;-76
2021/12/13 07:56:33;;;;;;;;;;;;;;;;;;5073819;28;19942;-76
2021/12/13 07:59:01;;;;;;;;;;;;;;;;;;5073968;28;20381;-76
2021/12/13 08:01:29;;;;;;;;;;;;;;;;;;5073059;28;19916;-76
2021/12/13 08:04:09;;;;;;;;;;;;;;;;;;5073819;28;20374;-77
2021/12/13 08:06:40;;;;;;;;;;;;;;;;;;5082015;28;20004;-76
2021/12/13 08:09:06;;;;;;;;;;;;;;;;;;5094096;28;20385;-75
2021/12/13 08:11:44;;;;;;;;;;;;;;;;;;5094079;28;19915;-77
2021/12/13 08:14:10;;;;;;;;;;;;;;;;;;5093663;28;19916;-77
2021/12/13 08:16:44;;;;;;;;;;;;;;;;;;5093473;28;20607;-77
2021/12/13 08:19:21;;;;;;;;;;;;;;;;;;5093775;28;20384;-75
2021/12/13 08:21:49;;;;;;;;;;;;;;;;;;5095820;28;19981;-78
2021/12/13 08:24:38;;;;;;;;;;;;;;;;;;5094011;28;20005;-78
2021/12/13 08:27:10;;;;;;;;;;;;;;;;;;5096457;28;20410;-77
2021/12/13 08:29:37;;;;;;;;;;;;;;;;;;5093774;28;20009;-78
2021/12/13 08:32:29;;;;;;;;;;;;;;;;;;5093613;28;19916;-77
2021/12/13 08:34:55;;;;;;;;;;;;;;;;;;5088507;28;19916;-77
2021/12/13 08:37:28;;;;;;;;;;;;;;;;;;5109061;28;20084;-76
2021/12/13 08:40:08;;;;;;;;;;;;;;;;;;5114009;28;20347;-76
2021/12/13 08:42:36;;;;;;;;;;;;;;;;;;5114134;28;19915;-76
2021/12/13 08:45:12;;;;;;;;;;;;;;;;;;5113895;28;19923;-77
2021/12/13 08:47:48;;;;;;;;;;;;;;;;;;5094512;28;19965;-77
2021/12/13 08:50:19;;;;;;;;;;;;;;;;;;5094970;28;19925;-78
2021/12/13 08:52:47;;;;;;;;;;;;;;;;;;5097893;28;20305;-77
2021/12/13 08:55:12;;;;;;;;;;;;;;;;;;5097790;28;20320;-76
2021/12/13 08:57:39;;;;;;;;;;;;;;;;;;5096400;28;19973;-76
2021/12/13 09:00:24;;;;;;;;;;;;;;;;;;5097341;28;19924;-76
2021/12/13 09:03:01;;;;;;;;;;;;;;;;;;5096225;28;19923;-77
2021/12/13 09:05:26;;;;;;;;;;;;;;;;;;5095273;28;19916;-78
2021/12/13 09:07:57;;;;;;;;;;;;;;;;;;5093831;28;19916;-78
2021/12/13 09:10:36;;;;;;;;;;;;;;;;;;5095869;28;19920;-77
2021/12/13 09:13:02;;;;;;;;;;;;;;;;;;5095874;28;19922;-77
2021/12/13 09:15:30;;;;;;;;;;;;;;;;;;5096126;28;19999;-77
2021/12/13 09:17:56;;;;;;;;;;;;;;;;;;5097394;28;19926;-76
2021/12/13 09:20:30;;;;;;;;;;;;;;;;;;5097468;28;20018;-76
2021/12/13 09:22:57;;;;;;;;;;;;;;;;;;5097502;28;19916;-76
2021/12/13 09:25:31;;;;;;;;;;;;;;;;;;5097202;28;20381;-76
2021/12/13 09:27:56;;;;;;;;;;;;;;;;;;5096871;28;19920;-76
2021/12/13 09:30:21;;;;;;;;;;;;;;;;;;5097255;28;20266;-76
2021/12/13 09:32:56;;;;;;;;;;;;;;;;;;5097001;28;20019;-76
2021/12/13 09:35:41;;;;;;;;;;;;;;;;;;5076634;28;19931;-76
2021/12/13 09:38:21;;;;;;;;;;;;;;;;;;5076525;28;20403;-76
2021/12/13 09:40:49;;;;;;;;;;;;;;;;;;5076458;28;19917;-76
2021/12/13 09:43:14;;;;;;;;;;;;;;;;;;5076144;28;20015;-76
2021/12/13 09:45:47;;;;;;;;;;;;;;;;;;5076195;28;19959;-76
2021/12/13 09:48:14;;;;;;;;;;;;;;;;;;5076499;28;20324;-76
2021/12/13 09:50:40;;;;;;;;;;;;;;;;;;5076316;28;20343;-76
2021/12/13 09:53:06;;;;;;;;;;;;;;;;;;5076229;28;19923;-76
2021/12/13 09:55:47;;;;;;;;;;;;;;;;;;5075677;28;20328;-76
2021/12/13 09:58:17;;;;;;;;;;;;;;;;;;5074674;28;19968;-76
2021/12/13 10:00:45;;;;;;;;;;;;;;;;;;5075771;28;19924;-76
2021/12/13 10:03:13;;;;;;;;;;;;;;;;;;5076287;28;19962;-76
2021/12/13 10:05:41;;;;;;;;;;;;;;;;;;5095490;28;19916;-76
2021/12/13 10:08:20;;;;;;;;;;;;;;;;;;5094412;28;19916;-76
2021/12/13 10:10:51;;;;;;;;;;;;;;;;;;5095958;28;19916;-76
2021/12/13 10:13:20;;;;;;;;;;;;;;;;;;5094390;28;19973;-76
2021/12/13 10:15:51;;;;;;;;;;;;;;;;;;5096230;28;19970;-76
2021/12/13 10:18:20;;;;;;;;;;;;;;;;;;5096164;28;19920;-76
2021/12/13 10:20:50;;;;;;;;;;;;;;;;;;5094849;28;19920;-76
2021/12/13 10:23:17;;;;;;;;;;;;;;;;;;5094540;28;19923;-76
2021/12/13 10:25:44;;;;;;;;;;;;;;;;;;5095989;28;19923;-76
2021/12/13 10:28:14;;;;;;;;;;;;;;;;;;5096126;28;20015;-76
2021/12/13 10:30:43;;;;;;;;;;;;;;;;;;5095908;28;19961;-77
2021/12/13 10:33:09;;;;;;;;;;;;;;;;;;5097956;28;19916;-76
2021/12/13 10:35:36;;;;;;;;;;;;;;;;;;5097822;28;19916;-77
2021/12/13 10:38:04;;;;;;;;;;;;;;;;;;5095280;28;19927;-78
2021/12/13 10:40:29;;;;;;;;;;;;;;;;;;5096579;28;19969;-76
2021/12/13 10:42:58;;;;;;;;;;;;;;;;;;5094286;28;19924;-76
2021/12/13 10:45:26;;;;;;;;;;;;;;;;;;5095493;28;19923;-77
2021/12/13 10:47:53;;;;;;;;;;;;;;;;;;5095136;28;20435;-77
2021/12/13 10:50:22;;;;;;;;;;;;;;;;;;5096121;28;19920;-78
2021/12/13 10:52:48;;;;;;;;;;;;;;;;;;5096196;28;19923;-76
2021/12/13 10:55:20;;;;;;;;;;;;;;;;;;5096576;28;19916;-77
2021/12/13 10:57:48;;;;;;;;;;;;;;;;;;5099630;28;19920;-79
2021/12/13 11:00:22;;;;;;;;;;;;;;;;;;5098473;28;19927;-80
2021/12/13 11:02:52;;;;;;;;;;;;;;;;;;5084124;28;19920;-80
2021/12/13 11:05:18;;;;;;;;;;;;;;;;;;5092886;28;20293;-81
2021/12/13 11:07:44;;;;;;;;;;;;;;;;;;5096665;28;19926;-80
2021/12/13 11:10:17;;;;;;;;;;;;;;;;;;5082414;28;19916;-80
2021/12/13 11:12:44;;;;;;;;;;;;;;;;;;5077471;28;20011;-80
2021/12/13 11:15:12;;;;;;;;;;;;;;;;;;5082275;28;20289;-78
2021/12/13 11:17:39;;;;;;;;;;;;;;;;;;5077966;28;19928;-79
2021/12/13 11:20:19;;;;;;;;;;;;;;;;;;5079087;28;19948;-78
2021/12/13 11:22:46;;;;;;;;;;;;;;;;;;5076553;28;20266;-79
2021/12/13 11:25:13;;;;;;;;;;;;;;;;;;5077006;28;19913;-79
2021/12/13 11:27:38;;;;;;;;;;;;;;;;;;5080265;28;20423;-79
2021/12/13 11:30:06;;;;;;;;;;;;;;;;;;5076846;28;19920;-77
2021/12/13 11:32:35;;;;;;;;;;;;;;;;;;5076020;28;19952;-78
2021/12/13 11:35:02;;;;;;;;;;;;;;;;;;5074642;28;19923;-77
2021/12/13 11:37:56;;;;;;;;;;;;;;;;;;5076750;28;19974;-77
2021/12/13 11:40:39;;;;;;;;;;;;;;;;;;5090000;28;19923;-77
2021/12/13 11:43:23;;;;;;;;;;;;;;;;;;5093723;28;19919;-77
2021/12/13 11:45:59;;;;;;;;;;;;;;;;;;5075015;28;19916;-78
2021/12/13 11:48:27;;;;;;;;;;;;;;;;;;5076524;28;19923;-77
2021/12/13 11:50:59;;;;;;;;;;;;;;;;;;5083152;28;19923;-78
2021/12/13 11:53:37;;;;;;;;;;;;;;;;;;5114853;28;19916;-77
2021/12/13 11:56:21;;;;;;;;;;;;;;;;;;5117223;28;19915;-80
2021/12/13 11:59:01;;;;;;;;;;;;;;;;;;5116494;28;19920;-80
2021/12/13 12:01:43;;;;;;;;;;;;;;;;;;5116629;28;19958;-81
2021/12/13 12:04:27;;;;;;;;;;;;;;;;;;5114209;28;19920;-76
2021/12/13 12:07:04;;;;;;;;;;;;;;;;;;5118957;28;19916;-79
2021/12/13 12:09:49;;;;;;;;;;;;;;;;;;5114472;28;20408;-77
2021/12/13 12:12:19;;;;;;;;;;;;;;;;;;5112713;28;19920;-75
2021/12/13 12:14:47;;;;;;;;;;;;;;;;;;5114584;28;19916;-77
2021/12/13 12:17:13;;;;;;;;;;;;;;;;;;5113219;28;19940;-77
2021/12/13 12:19:42;;;;;;;;;;;;;;;;;;5114719;28;20277;-77
2021/12/13 12:22:10;;;;;;;;;;;;;;;;;;5114186;28;19923;-75
2021/12/13 12:24:37;;;;;;;;;;;;;;;;;;5113471;28;19919;-77
2021/12/13 12:27:04;;;;;;;;;;;;;;;;;;5117928;28;19967;-78
2021/12/13 12:29:38;;;;;;;;;;;;;;;;;;5113970;28;19916;-77
2021/12/13 12:32:15;;;;;;;;;;;;;;;;;;5114301;28;19915;-75
2021/12/13 12:34:52;;;;;;;;;;;;;;;;;;5097791;28;20378;-76
2021/12/13 12:37:27;;;;;;;;;;;;;;;;;;5094363;28;19947;-77
2021/12/13 12:39:55;;;;;;;;;;;;;;;;;;5096195;28;20397;-76
2021/12/13 12:42:23;;;;;;;;;;;;;;;;;;5093126;28;19924;-76
2021/12/13 12:44:59;;;;;;;;;;;;;;;;;;5093879;28;20345;-79
2021/12/13 12:47:45;;;;;;;;;;;;;;;;;;5098260;28;20417;-78
2021/12/13 12:50:16;;;;;;;;;;;;;;;;;;5089441;28;20009;-78
2021/12/13 12:52:52;;;;;;;;;;;;;;;;;;5080983;28;19916;-82
2021/12/13 12:55:26;;;;;;;;;;;;;;;;;;5112791;28;19916;-80
2021/12/13 12:57:51;;;;;;;;;;;;;;;;;;5080035;28;19921;-79
2021/12/13 13:00:27;;;;;;;;;;;;;;;;;;5084332;28;19969;-78
2021/12/13 13:02:53;;;;;;;;;;;;;;;;;;5102515;28;19916;-79
2021/12/13 13:05:19;;;;;;;;;;;;;;;;;;5103108;28;20003;-80
2021/12/13 13:07:44;;;;;;;;;;;;;;;;;;5099985;28;19919;-81
2021/12/13 13:12:45;;;;;;;;;;;;;;;;;;5097908;28;20385;-79
2021/12/13 13:15:14;;;;;;;;;;;;;;;;;;5094792;28;19923;-79
2021/12/13 13:17:44;;;;;;;;;;;;;;;;;;5093476;28;19920;-75
2021/12/13 13:20:15;;;;;;;;;;;;;;;;;;5093626;28;19916;-78
2021/12/13 13:22:41;;;;;;;;;;;;;;;;;;5093921;28;19916;-76
2021/12/13 13:25:20;;;;;;;;;;;;;;;;;;5092445;28;19916;-77
2021/12/13 13:27:45;;;;;;;;;;;;;;;;;;5093410;28;19927;-76
2021/12/13 13:30:15;;;;;;;;;;;;;;;;;;5092812;28;20266;-77
2021/12/13 13:32:41;;;;;;;;;;;;;;;;;;5093156;28;19916;-76
2021/12/13 13:35:07;;;;;;;;;;;;;;;;;;5092100;28;19965;-76
2021/12/13 13:37:38;;;;;;;;;;;;;;;;;;5096361;28;19926;-76
2021/12/13 13:40:18;;;;;;;;;;;;;;;;;;5096886;28;20297;-76
2021/12/13 13:42:45;;;;;;;;;;;;;;;;;;5096694;28;19924;-76
2021/12/13 13:45:20;;;;;;;;;;;;;;;;;;5095361;28;20377;-76
2021/12/13 13:47:48;;;;;;;;;;;;;;;;;;5096391;28;19924;-76
2021/12/13 13:50:16;;;;;;;;;;;;;;;;;;5096744;28;19916;-76
2021/12/13 13:52:44;;;;;;;;;;;;;;;;;;5095490;28;19916;-76
2021/12/13 13:55:45;;;;;;;;;;;;;;;;;;5096449;28;19916;-76
2021/12/13 13:58:17;;;;;;;;;;;;;;;;;;5032937;28;20633;-76
2021/12/13 14:00:46;;;;;;;;;;;;;;;;;;5085691;28;19916;-76
2021/12/13 14:03:11;;;;;;;;;;;;;;;;;;5095523;28;19924;-76
2021/12/13 14:05:39;;;;;;;;;;;;;;;;;;5096277;28;19918;-76
2021/12/13 14:08:15;;;;;;;;;;;;;;;;;;5096189;28;19920;-76
2021/12/13 14:10:41;;;;;;;;;;;;;;;;;;5096324;28;20373;-76
2021/12/13 14:13:07;;;;;;;;;;;;;;;;;;5096161;28;19923;-76
2021/12/13 14:15:34;;;;;;;;;;;;;;;;;;5096190;28;19916;-76
2021/12/13 14:18:07;;;;;;;;;;;;;;;;;;5095850;28;19920;-77
2021/12/13 14:20:35;;;;;;;;;;;;;;;;;;5095913;28;19920;-77
2021/12/13 14:23:21;;;;;;;;;;;;;;;;;;5095839;28;19942;-77
2021/12/13 14:25:46;;;;;;;;;;;;;;;;;;5095476;28;19920;-76
2021/12/13 14:28:12;;;;;;;;;;;;;;;;;;5094688;28;20022;-76
2021/12/13 14:30:40;;;;;;;;;;;;;;;;;;5095478;28;19916;-76
2021/12/13 14:33:27;;;;;;;;;;;;;;;;;;5095675;28;20360;-76
2021/12/13 14:36:01;;;;;;;;;;;;;;;;;;5094883;28;20054;-76
2021/12/13 14:38:27;;;;;;;;;;;;;;;;;;5095693;28;19920;-76
2021/12/13 14:40:53;;;;;;;;;;;;;;;;;;5095665;28;19982;-76
2021/12/13 14:43:22;;;;;;;;;;;;;;;;;;5094955;28;20270;-76
2021/12/13 14:45:49;;;;;;;;;;;;;;;;;;5094034;28;19997;-77
2021/12/13 14:48:19;;;;;;;;;;;;;;;;;;5094744;28;19916;-76
2021/12/13 14:50:47;;;;;;;;;;;;;;;;;;5095400;28;20327;-76
2021/12/13 14:53:19;;;;;;;;;;;;;;;;;;5094203;28;19923;-76
2021/12/13 14:55:45;;;;;;;;;;;;;;;;;;5095251;28;19916;-77
2021/12/13 14:58:12;;;;;;;;;;;;;;;;;;5095038;28;19923;-76
2021/12/13 15:00:41;;;;;;;;;;;;;;;;;;5095215;28;19923;-76
2021/12/13 15:03:10;;;;;;;;;;;;;;;;;;5094103;28;20345;-76
2021/12/13 15:05:38;;;;;;;;;;;;;;;;;;5094561;28;19920;-77
2021/12/13 15:08:07;;;;;;;;;;;;;;;;;;5093579;28;20022;-76
2021/12/13 15:10:38;;;;;;;;;;;;;;;;;;5094969;28;19923;-77
2021/12/13 15:13:05;;;;;;;;;;;;;;;;;;5094985;28;20382;-76
2021/12/13 15:15:34;;;;;;;;;;;;;;;;;;5083139;28;19918;-76
2021/12/13 15:18:04;;;;;;;;;;;;;;;;;;5073792;28;19921;-76
2021/12/13 15:20:31;;;;;;;;;;;;;;;;;;5076288;28;19916;-76
2021/12/13 15:22:58;;;;;;;;;;;;;;;;;;5080636;28;19916;-74
2021/12/13 15:25:25;;;;;;;;;;;;;;;;;;5086197;28;19923;-74
2021/12/13 15:27:51;;;;;;;;;;;;;;;;;;5093511;28;19916;-74
2021/12/13 15:30:20;;;;;;;;;;;;;;;;;;5094191;28;20373;-74
2021/12/13 15:32:47;;;;;;;;;;;;;;;;;;5094290;28;20034;-74
2021/12/13 15:35:13;;;;;;;;;;;;;;;;;;5093458;28;19924;-74
2021/12/13 15:37:41;;;;;;;;;;;;;;;;;;5094331;28;19920;-73
2021/12/13 15:40:16;;;;;;;;;;;;;;;;;;5094461;28;19955;-74
2021/12/13 15:42:43;;;;;;;;;;;;;;;;;;5094286;28;19920;-74
2021/12/13 15:45:20;;;;;;;;;;;;;;;;;;5094533;28;19916;-74
2021/12/13 15:50:48;;;;;;;;;;;;;;;;;;5094372;28;20006;-74
2021/12/13 15:53:14;;;;;;;;;;;;;;;;;;5094204;28;19923;-74
2021/12/13 15:55:57;;;;;;;;;;;;;;;;;;5094161;28;19916;-74
2021/12/13 15:58:22;;;;;;;;;;;;;;;;;;5093974;28;19920;-74
2021/12/13 16:00:47;;;;;;;;;;;;;;;;;;5094228;28;20308;-74
2021/12/13 16:03:22;;;;;;;;;;;;;;;;;;5094203;28;20415;-74
2021/12/13 16:05:47;;;;;;;;;;;;;;;;;;5094046;28;19916;-74
2021/12/13 16:08:12;;;;;;;;;;;;;;;;;;5093318;28;20415;-74
2021/12/13 16:10:38;;;;;;;;;;;;;;;;;;5093864;28;19939;-74
2021/12/13 16:13:05;;;;;;;;;;;;;;;;;;5093643;28;19969;-74
2021/12/13 16:15:31;;;;;;;;;;;;;;;;;;5093968;28;20297;-74
2021/12/13 16:17:58;;;;;;;;;;;;;;;;;;5093883;28;19920;-75
2021/12/13 16:20:30;;;;;;;;;;;;;;;;;;5092680;28;19924;-74
2021/12/13 16:23:09;;;;;;;;;;;;;;;;;;5094032;28;19920;-74
2021/12/13 16:25:35;;;;;;;;;;;;;;;;;;5093515;28;19939;-74
2021/12/13 16:28:19;;;;;;;;;;;;;;;;;;5093887;28;19916;-74
2021/12/13 16:30:44;;;;;;;;;;;;;;;;;;5093521;28;19916;-74
2021/12/13 16:33:12;;;;;;;;;;;;;;;;;;5092398;28;19916;-74
2021/12/13 16:35:38;;;;;;;;;;;;;;;;;;5091380;28;19969;-74
2021/12/13 16:38:06;;;;;;;;;;;;;;;;;;5076119;28;19920;-74
2021/12/13 16:40:32;;;;;;;;;;;;;;;;;;5073521;28;20294;-74
2021/12/13 16:43:00;;;;;;;;;;;;;;;;;;5073471;28;20445;-74
2021/12/13 16:45:26;;;;;;;;;;;;;;;;;;5073455;28;19920;-74
2021/12/13 16:47:52;;;;;;;;;;;;;;;;;;5072951;28;19927;-74
2021/12/13 16:50:18;;;;;;;;;;;;;;;;;;5072034;28;20332;-74
2021/12/13 16:52:44;;;;;;;;;;;;;;;;;;5073237;28;19973;-74
2021/12/13 16:55:11;;;;;;;;;;;;;;;;;;5073378;28;19920;-74
2021/12/13 16:57:43;;;;;;;;;;;;;;;;;;5072105;28;20007;-74
2021/12/13 17:00:17;;;;;;;;;;;;;;;;;;5082879;28;19923;-74
2021/12/13 17:02:43;;;;;;;;;;;;;;;;;;5083357;28;19923;-74
2021/12/13 17:05:20;;;;;;;;;;;;;;;;;;5081625;28;19923;-74
2021/12/13 17:07:48;;;;;;;;;;;;;;;;;;5083169;28;19920;-74
2021/12/13 17:10:13;;;;;;;;;;;;;;;;;;5083747;28;19962;-74
2021/12/13 17:12:51;;;;;;;;;;;;;;;;;;5084694;28;19920;-74
2021/12/13 17:15:17;;;;;;;;;;;;;;;;;;5085516;28;19958;-73
2021/12/13 17:17:44;;;;;;;;;;;;;;;;;;5085587;28;19960;-74
2021/12/13 17:20:28;;;;;;;;;;;;;;;;;;5085173;28;19923;-74
2021/12/13 17:22:54;;;;;;;;;;;;;;;;;;5086274;28;19922;-74